Coleridge, North Carolina
Current Conditions -  °F | °C
As of 11:35 AM on Wednesday 22 Oct 2014 (Local Time) from K5W8 Reporting Station
Clear Clear  
Wind Chill: 15°   Ceiling: Unl
Heat Index: 15°   Visibility: 10mi
Dew Point:   Wind: 10mph
Humidity: 51%   Direction: 10°N
Pressure: 30.03"   Gusts: 16mph
Location:  35.6832°N, 79.6174°W
Report Text: K5W8 221535Z AUTO 01009G14KT 10SM CLR 15/05 A3003 RMK AO2 T01510049
Loading
Personal Weather Stations






























Interactive Weather Map
Tropical Storm Tracking
New forecast layout! Learn more

10-Day Weather Forecast

Advertisements
Track Severe Weather on mobile